Time;durP1;ratioP1;P1;durP2;ratioP2;P2;SDS_P1;SDS_P2;PMS_P1;PMS_P2;Temp;Humidity;BMP_temperature;BMP_pressure;BME280_temperature;BME280_humidity;BME280_pressure;Samples;Min_cycle;Max_cycle;Signal;HPM_P1;HPM_P2
2024/03/07 00:01:12;;;;;;;;;;;;;;;23.27;47.48;94460.44;4976024;28;9056;-62
2024/03/07 00:04:04;;;;;;;;;;;;;;;23.28;47.52;94459.19;4963906;28;9007;-62
2024/03/07 00:06:33;;;;;;;;;;;;;;;23.29;47.67;94457.19;4974997;28;7010;-62
2024/03/07 00:09:09;;;;;;;;;;;;;;;23.25;47.91;94463.66;4980505;28;8807;-61
2024/03/07 00:11:49;;;;;;;;;;;;;;;23.22;47.47;94444.69;4970549;28;9194;-61
2024/03/07 00:14:18;;;;;;;;;;;;;;;23.25;47.45;94449.94;4973730;28;9118;-70
2024/03/07 00:16:46;;;;;;;;;;;;;;;23.26;47.54;94453.44;4973207;28;9127;-70
2024/03/07 00:19:16;;;;;;;;;;;;;;;23.21;47.46;94441.19;4981931;28;8718;-70
2024/03/07 00:21:42;;;;;;;;;;;;;;;23.25;47.12;94454.69;5008276;28;9120;-70
2024/03/07 00:24:10;;;;;;;;;;;;;;;23.26;47.42;94450.69;5003378;28;9172;-68
2024/03/07 00:26:46;;;;;;;;;;;;;;;23.24;47.27;94451.19;4998450;28;8921;-62
2024/03/07 00:29:12;;;;;;;;;;;;;;;23.23;47.31;94446.94;5006769;28;9243;-62
2024/03/07 00:31:40;;;;;;;;;;;;;;;23.24;47.29;94434.75;5043250;28;9424;-62
2024/03/07 00:34:07;;;;;;;;;;;;;;;23.24;47.11;94437.47;5111319;28;9206;-62
2024/03/07 00:36:51;;;;;;;;;;;;;;;23.25;47.67;94435.47;5105166;28;6910;-62
2024/03/07 00:39:28;;;;;;;;;;;;;;;23.21;47.01;94429.47;5094891;28;8850;-62
2024/03/07 00:42:17;;;;;;;;;;;;;;;23.24;46.96;94434.75;5108259;28;9315;-62
2024/03/07 00:44:43;;;;;;;;;;;;;;;23.19;47.11;94432.72;5091890;28;8693;-62
2024/03/07 00:47:09;;;;;;;;;;;;;;;23.23;46.60;94427.72;5076167;28;9227;-62
2024/03/07 00:49:35;;;;;;;;;;;;;;;23.24;46.96;94432.00;5084353;28;9113;-62
2024/03/07 00:52:11;;;;;;;;;;;;;;;23.24;46.94;94425.75;5086970;28;8691;-62
2024/03/07 00:54:43;;;;;;;;;;;;;;;23.19;47.33;94418.25;5077121;28;9333;-61
2024/03/07 00:57:24;;;;;;;;;;;;;;;23.18;47.14;94417.47;5087261;28;9436;-62
2024/03/07 00:59:52;;;;;;;;;;;;;;;23.17;47.16;94413.25;5086360;28;9020;-62
2024/03/07 01:03:05;;;;;;;;;;;;;;;23.22;47.36;94415.28;5107468;28;8709;-62
2024/03/07 01:05:43;;;;;;;;;;;;;;;23.17;47.13;94407.78;5036476;28;9079;-62
2024/03/07 01:08:27;;;;;;;;;;;;;;;23.22;47.21;94415.28;5053622;28;9074;-62
2024/03/07 01:10:55;;;;;;;;;;;;;;;23.17;47.15;94399.53;5053484;28;9445;-62
2024/03/07 01:13:22;;;;;;;;;;;;;;;23.22;46.69;94400.81;5053708;28;9350;-62
2024/03/07 01:16:13;;;;;;;;;;;;;;;23.23;47.03;94400.28;5041253;28;9147;-62
2024/03/07 01:18:50;;;;;;;;;;;;;;;23.22;47.30;94398.81;5052646;28;9125;-62
2024/03/07 01:21:41;;;;;;;;;;;;;;;23.23;46.85;94397.56;5038566;28;9803;-62
2024/03/07 01:24:27;;;;;;;;;;;;;;;23.23;46.81;94394.81;5053115;28;9039;-62
2024/03/07 01:27:30;;;;;;;;;;;;;;;23.22;47.23;94387.84;5052233;28;8991;-62
2024/03/07 01:30:28;;;;;;;;;;;;;;;23.22;46.85;94379.59;4961437;28;9437;-62
2024/03/07 01:33:08;;;;;;;;;;;;;;;23.23;46.66;94383.06;4981941;28;8738;-62
2024/03/07 01:35:43;;;;;;;;;;;;;;;23.20;47.27;94379.34;4942274;28;9104;-62
2024/03/07 01:38:28;;;;;;;;;;;;;;;23.20;47.14;94367.63;4961074;28;9138;-62
2024/03/07 01:41:08;;;;;;;;;;;;;;;23.22;46.95;94371.38;4955700;28;9437;-62
2024/03/07 01:43:34;;;;;;;;;;;;;;;23.18;47.25;94361.88;4969868;28;9069;-62
2024/03/07 01:46:01;;;;;;;;;;;;;;;23.21;46.81;94358.88;4980295;28;9415;-62
2024/03/07 01:48:31;;;;;;;;;;;;;;;23.22;46.97;94368.63;4974218;28;6940;-62
2024/03/07 01:50:59;;;;;;;;;;;;;;;23.19;46.49;94355.88;4976138;28;9072;-62
2024/03/07 01:53:36;;;;;;;;;;;;;;;23.20;46.55;94351.16;4991939;28;9039;-62
2024/03/07 01:56:35;;;;;;;;;;;;;;;23.23;46.59;94350.91;4977367;28;9091;-62
2024/03/07 01:59:24;;;;;;;;;;;;;;;23.19;46.34;94347.66;4938406;28;9174;-62
2024/03/07 02:02:27;;;;;;;;;;;;;;;23.23;47.01;94352.91;4935495;29;8780;-62
2024/03/07 02:05:02;;;;;;;;;;;;;;;23.22;46.62;94341.19;4878508;29;9209;-62
2024/03/07 02:07:46;;;;;;;;;;;;;;;23.22;46.76;94349.41;4879080;29;6864;-62
2024/03/07 02:10:13;;;;;;;;;;;;;;;23.22;46.65;94341.19;4928294;29;7166;-62
2024/03/07 02:12:55;;;;;;;;;;;;;;;23.18;46.72;94337.91;4934878;29;9514;-62
2024/03/07 02:15:22;;;;;;;;;;;;;;;23.17;46.72;94333.69;4939403;28;9490;-62
2024/03/07 02:17:49;;;;;;;;;;;;;;;23.21;46.61;94342.41;4938514;28;8794;-62
2024/03/07 02:20:17;;;;;;;;;;;;;;;23.20;46.87;94340.94;4934384;29;9020;-62
2024/03/07 02:22:46;;;;;;;;;;;;;;;23.14;46.66;94331.94;4932937;29;9131;-62
2024/03/07 02:25:12;;;;;;;;;;;;;;;23.19;46.52;94333.94;4932652;29;9040;-62
2024/03/07 02:27:38;;;;;;;;;;;;;;;23.18;46.57;94323.47;4936123;28;7356;-62
2024/03/07 02:30:08;;;;;;;;;;;;;;;23.18;46.21;94323.47;4933324;29;9079;-62
2024/03/07 02:32:38;;;;;;;;;;;;;;;23.21;46.67;94322.47;4932845;29;8992;-62
2024/03/07 02:35:05;;;;;;;;;;;;;;;23.19;46.67;94322.22;4960200;28;8724;-62
2024/03/07 02:37:31;;;;;;;;;;;;;;;23.23;46.30;94326.22;4974179;28;9278;-62
2024/03/07 02:39:57;;;;;;;;;;;;;;;23.22;46.23;94315.75;5076266;28;8878;-62
2024/03/07 02:42:26;;;;;;;;;;;;;;;23.22;46.58;94313.75;5078372;28;9636;-62
2024/03/07 02:44:54;;;;;;;;;;;;;;;23.21;46.04;94317.72;5081186;28;9280;-69
2024/03/07 02:47:23;;;;;;;;;;;;;;;23.23;46.32;94326.22;5093569;28;9006;-70
2024/03/07 02:49:49;;;;;;;;;;;;;;;23.17;46.71;94313.72;5076897;28;8759;-70
2024/03/07 02:52:42;;;;;;;;;;;;;;;23.21;46.53;94314.97;5091597;28;9090;-70
2024/03/07 02:55:20;;;;;;;;;;;;;;;23.21;46.25;94320.47;5053808;28;9325;-70
2024/03/07 02:57:58;;;;;;;;;;;;;;;23.20;46.66;94316.25;5052196;28;9697;-70
2024/03/07 03:00:56;;;;;;;;;;;;;;;23.21;46.62;94314.97;5066593;28;9632;-70
2024/03/07 03:03:33;;;;;;;;;;;;;;;23.19;46.32;94314.72;5052611;28;9079;-70
2024/03/07 03:06:14;;;;;;;;;;;;;;;23.21;46.62;94306.75;5042593;28;8957;-70
2024/03/07 03:09:00;;;;;;;;;;;;;;;23.23;46.00;94311.72;5039308;28;8970;-69
2024/03/07 03:11:29;;;;;;;;;;;;;;;23.21;46.65;94304.00;5071033;28;9422;-69
2024/03/07 03:13:57;;;;;;;;;;;;;;;23.20;46.50;94310.75;5054713;28;9120;-69
2024/03/07 03:16:34;;;;;;;;;;;;;;;23.19;46.17;94301.00;5041961;28;9052;-69
2024/03/07 03:19:17;;;;;;;;;;;;;;;23.21;46.67;94300.50;5070237;28;8023;-70
2024/03/07 03:21:44;;;;;;;;;;;;;;;23.19;46.27;94298.28;5053330;28;7011;-70
2024/03/07 03:24:20;;;;;;;;;;;;;;;23.17;46.21;94303.50;5068397;28;9326;-69
2024/03/07 03:26:48;;;;;;;;;;;;;;;23.18;46.63;94296.75;5069141;28;9175;-69
2024/03/07 03:29:18;;;;;;;;;;;;;;;23.21;46.06;94308.75;5057682;28;9395;-70
2024/03/07 03:31:47;;;;;;;;;;;;;;;23.17;46.23;94295.28;5075277;28;9079;-69
2024/03/07 03:34:42;;;;;;;;;;;;;;;23.22;46.52;94307.50;5090894;28;7463;-69
2024/03/07 03:37:11;;;;;;;;;;;;;;;23.20;46.22;94296.28;5085727;28;7260;-70
2024/03/07 03:39:37;;;;;;;;;;;;;;;23.19;46.65;94295.53;5091360;28;9006;-69
2024/03/07 03:42:04;;;;;;;;;;;;;;;23.18;46.50;94293.28;5082483;28;9157;-69
2024/03/07 03:44:30;;;;;;;;;;;;;;;23.19;46.21;94295.53;5100294;28;9086;-69
2024/03/07 03:46:58;;;;;;;;;;;;;;;23.18;46.16;94291.28;5090638;28;8706;-69
2024/03/07 03:49:27;;;;;;;;;;;;;;;23.15;45.77;94284.06;5081048;28;8612;-69
2024/03/07 03:51:53;;;;;;;;;;;;;;;23.20;45.99;94286.06;5100060;28;8707;-68
2024/03/07 03:54:19;;;;;;;;;;;;;;;23.18;45.75;94291.28;5087197;28;8798;-61
2024/03/07 03:56:54;;;;;;;;;;;;;;;23.19;46.30;94289.28;5084132;28;9242;-61
2024/03/07 03:59:26;;;;;;;;;;;;;;;23.20;45.98;94285.31;5092323;28;7271;-61
2024/03/07 04:02:31;;;;;;;;;;;;;;;23.19;45.86;94281.81;5095042;28;8933;-61
2024/03/07 04:04:59;;;;;;;;;;;;;;;23.18;46.79;94282.31;5097173;28;8775;-61
2024/03/07 04:07:36;;;;;;;;;;;;;;;23.17;46.16;94278.06;5086896;28;9150;-61
2024/03/07 04:10:19;;;;;;;;;;;;;;;23.18;45.95;94279.56;5095765;28;9537;-61
2024/03/07 04:13:01;;;;;;;;;;;;;;;23.16;46.15;94269.06;5107359;28;9012;-61
2024/03/07 04:15:45;;;;;;;;;;;;;;;23.14;46.32;94260.59;5086145;28;9415;-61
2024/03/07 04:18:22;;;;;;;;;;;;;;;23.17;45.92;94270.59;5092921;28;9044;-61
2024/03/07 04:20:57;;;;;;;;;;;;;;;23.18;46.29;94272.06;5089379;28;9350;-61
2024/03/07 04:23:29;;;;;;;;;;;;;;;23.17;46.05;94270.59;5083548;28;7043;-61
2024/03/07 04:26:26;;;;;;;;;;;;;;;23.18;45.86;94271.34;5099487;28;8995;-60
2024/03/07 04:29:23;;;;;;;;;;;;;;;23.18;46.40;94266.59;5054172;28;9142;-61
2024/03/07 04:31:53;;;;;;;;;;;;;;;23.15;46.14;94264.09;5052630;28;9407;-73
2024/03/07 04:34:53;;;;;;;;;;;;;;;23.16;46.20;94266.34;5036963;28;9389;-62
2024/03/07 04:37:58;;;;;;;;;;;;;;;23.18;45.89;94260.38;4998778;28;7266;-62
2024/03/07 04:40:23;;;;;;;;;;;;;;;23.17;46.22;94267.84;5001899;28;8700;-63
2024/03/07 04:42:52;;;;;;;;;;;;;;;23.20;45.46;94268.84;4978219;28;9011;-62
2024/03/07 04:45:19;;;;;;;;;;;;;;;23.18;46.07;94266.59;4997095;28;7881;-62
2024/03/07 04:47:46;;;;;;;;;;;;;;;23.17;45.99;94267.84;4991056;28;8822;-62
2024/03/07 04:50:13;;;;;;;;;;;;;;;23.17;45.70;94256.09;5014071;28;8988;-62
2024/03/07 04:52:54;;;;;;;;;;;;;;;23.16;46.35;94260.84;5002356;28;9097;-62
2024/03/07 04:55:23;;;;;;;;;;;;;;;23.17;45.93;94265.09;4986570;28;9147;-62
2024/03/07 04:57:51;;;;;;;;;;;;;;;23.14;46.19;94260.59;4978336;28;9648;-63
2024/03/07 05:00:19;;;;;;;;;;;;;;;23.16;45.95;94266.34;4998485;28;7373;-62
2024/03/07 05:02:50;;;;;;;;;;;;;;;23.17;46.38;94264.34;4991620;28;8784;-63
2024/03/07 05:05:21;;;;;;;;;;;;;;;23.17;45.49;94256.88;5012861;28;9393;-69
2024/03/07 05:07:50;;;;;;;;;;;;;;;23.16;45.93;94255.34;5016889;28;8762;-70
2024/03/07 05:10:17;;;;;;;;;;;;;;;23.13;45.73;94250.88;5016916;28;9088;-69
2024/03/07 05:12:58;;;;;;;;;;;;;;;23.18;45.94;94255.59;5038687;28;9082;-70
2024/03/07 05:15:52;;;;;;;;;;;;;;;23.18;45.80;94255.59;5074122;28;8789;-69
2024/03/07 05:18:38;;;;;;;;;;;;;;;23.13;45.86;94242.66;5078582;28;9098;-70
2024/03/07 05:21:37;;;;;;;;;;;;;;;23.19;46.28;94250.88;5082781;28;8990;-69
2024/03/07 05:24:15;;;;;;;;;;;;;;;23.15;46.30;94253.88;5026107;28;7195;-69
2024/03/07 05:26:56;;;;;;;;;;;;;;;23.17;45.95;94259.59;5017127;28;9681;-69
2024/03/07 05:29:24;;;;;;;;;;;;;;;23.12;46.03;94271.31;5040994;28;8713;-69
2024/03/07 05:32:26;;;;;;;;;;;;;;;23.11;46.48;94269.09;5046571;28;9221;-69
2024/03/07 05:35:01;;;;;;;;;;;;;;;23.13;46.32;94269.34;5035174;28;8759;-64
2024/03/07 05:37:41;;;;;;;;;;;;;;;23.11;46.20;94267.09;5027460;28;9221;-64
2024/03/07 05:40:20;;;;;;;;;;;;;;;23.17;47.50;94267.84;5041885;28;9567;-64
2024/03/07 05:42:46;;;;;;;;;;;;;;;23.25;48.18;94260.59;5045754;28;7320;-63
2024/03/07 05:45:14;;;;;;;;;;;;;;;23.25;48.04;94268.09;5035681;28;8680;-63
2024/03/07 05:47:41;;;;;;;;;;;;;;;23.28;47.72;94264.34;5026540;28;7040;-64
2024/03/07 05:50:13;;;;;;;;;;;;;;;23.34;47.72;94267.88;5028297;28;9254;-64
2024/03/07 05:52:44;;;;;;;;;;;;;;;23.31;49.07;94268.09;5028551;28;9179;-63
2024/03/07 05:55:45;;;;;;;;;;;;;;;23.38;47.28;94267.63;5032362;28;9002;-68
2024/03/07 05:58:24;;;;;;;;;;;;;;;23.35;46.00;94263.88;4971766;28;9246;-68
2024/03/07 06:01:20;;;;;;;;;;;;;;;23.30;46.39;94258.34;4978766;28;9704;-70
2024/03/07 06:04:02;;;;;;;;;;;;;;;23.24;46.63;94255.63;4988394;28;7357;-60
2024/03/07 06:06:31;;;;;;;;;;;;;;;23.18;46.34;94249.38;4986947;28;9339;-60
2024/03/07 06:09:07;;;;;;;;;;;;;;;23.16;46.08;94249.88;4984709;28;8703;-60
2024/03/07 06:11:50;;;;;;;;;;;;;;;23.22;46.81;94258.13;4997685;28;9405;-60
2024/03/07 06:14:31;;;;;;;;;;;;;;;23.18;46.82;94255.59;4985997;28;9379;-60
2024/03/07 06:17:31;;;;;;;;;;;;;;;23.16;46.57;94257.38;5012243;28;8630;-61
2024/03/07 06:20:22;;;;;;;;;;;;;;;23.21;47.25;94257.38;4977765;28;9036;-60
2024/03/07 06:22:59;;;;;;;;;;;;;;;23.23;47.46;94259.59;4980464;28;9787;-60
2024/03/07 06:26:00;;;;;;;;;;;;;;;23.23;46.16;94260.34;5011188;28;9398;-60
2024/03/07 06:28:19;;;;;;;;;;;;;;;23.18;46.73;94258.34;5006696;28;7262;-61
2024/03/07 06:31:19;;;;;;;;;;;;;;;23.23;46.63;94260.34;4992040;28;8603;-61
2024/03/07 06:33:45;;;;;;;;;;;;;;;23.24;46.03;94250.13;5077944;28;8711;-61
2024/03/07 06:36:11;;;;;;;;;;;;;;;23.24;45.87;94247.41;5081151;28;8675;-61
2024/03/07 06:38:37;;;;;;;;;;;;;;;23.17;45.46;94245.91;5091545;28;9066;-61
2024/03/07 06:41:05;;;;;;;;;;;;;;;23.21;45.60;94257.38;5089592;28;8923;-61
2024/03/07 06:43:36;;;;;;;;;;;;;;;23.17;45.42;94247.88;5091642;28;8636;-61
2024/03/07 06:46:03;;;;;;;;;;;;;;;23.21;45.75;94254.63;5075319;28;9066;-60
2024/03/07 06:48:29;;;;;;;;;;;;;;;23.18;45.84;94254.88;5088170;28;9484;-61
2024/03/07 06:50:54;;;;;;;;;;;;;;;23.18;45.80;94252.88;5100523;28;9140;-61
2024/03/07 06:53:25;;;;;;;;;;;;;;;23.14;45.53;94260.59;5091764;28;9219;-61
2024/03/07 06:55:55;;;;;;;;;;;;;;;23.20;46.11;94263.34;5081193;28;8871;-65
2024/03/07 06:58:21;;;;;;;;;;;;;;;23.22;46.29;94264.38;5088230;28;8678;-66
2024/03/07 07:01:15;;;;;;;;;;;;;;;23.25;46.35;94262.59;5088131;28;8782;-64
2024/03/07 07:03:48;;;;;;;;;;;;;;;23.25;45.70;94265.34;5085621;28;9125;-66
2024/03/07 07:06:16;;;;;;;;;;;;;;;23.29;45.91;94259.63;5076996;28;9104;-63
2024/03/07 07:08:52;;;;;;;;;;;;;;;23.36;46.19;94259.88;5093224;28;8829;-64
2024/03/07 07:11:25;;;;;;;;;;;;;;;23.36;46.84;94250.94;5087322;28;9508;-64
2024/03/07 07:14:02;;;;;;;;;;;;;;;23.45;47.42;94256.13;5095965;28;8737;-63
2024/03/07 07:16:35;;;;;;;;;;;;;;;23.62;53.53;94254.88;5090867;28;8933;-68
2024/03/07 07:19:07;;;;;;;;;;;;;;;23.80;55.27;94248.88;5089507;28;9357;-68
2024/03/07 07:21:36;;;;;;;;;;;;;;;24.05;56.11;94247.13;5078812;28;9119;-67
2024/03/07 07:24:49;;;;;;;;;;;;;;;24.28;56.79;94259.53;5077367;28;8999;-68
2024/03/07 07:27:21;;;;;;;;;;;;;;;24.46;55.78;94253.47;5034909;28;7279;-68
2024/03/07 07:29:57;;;;;;;;;;;;;;;24.64;55.34;94254.88;5050477;28;9013;-67
2024/03/07 07:32:26;;;;;;;;;;;;;;;24.71;52.37;94246.06;5051109;28;8904;-63
2024/03/07 07:35:44;;;;;;;;;;;;;;;24.71;48.96;94255.06;5051453;28;9334;-64
2024/03/07 07:38:19;;;;;;;;;;;;;;;24.66;48.20;94250.34;4991901;28;9039;-64
2024/03/07 07:40:46;;;;;;;;;;;;;;;24.60;45.25;94255.13;4982986;28;9763;-66
2024/03/07 07:43:22;;;;;;;;;;;;;;;24.54;45.64;94251.66;4976184;28;7059;-62
2024/03/07 07:45:51;;;;;;;;;;;;;;;24.45;45.19;94246.47;4974993;28;9779;-62
2024/03/07 07:48:19;;;;;;;;;;;;;;;24.45;45.59;94251.94;4975893;28;7134;-62
2024/03/07 07:50:49;;;;;;;;;;;;;;;24.41;45.22;94245.97;4969299;28;9072;-62
2024/03/07 07:53:36;;;;;;;;;;;;;;;24.43;45.23;94248.22;4985234;28;9541;-62
2024/03/07 07:56:20;;;;;;;;;;;;;;;24.41;44.68;94245.97;4979217;28;7218;-62
2024/03/07 07:58:48;;;;;;;;;;;;;;;24.41;45.24;94247.97;4979245;28;9096;-62
2024/03/07 08:01:16;;;;;;;;;;;;;;;24.41;45.69;94245.22;4975462;28;9096;-64
2024/03/07 08:03:44;;;;;;;;;;;;;;;24.34;42.38;94230.00;4976326;28;9425;-66
2024/03/07 08:06:11;;;;;;;;;;;;;;;24.25;33.60;94238.53;4976056;28;9002;-64
2024/03/07 08:08:40;;;;;;;;;;;;;;;24.09;35.78;94236.59;4992837;28;9437;-62
2024/03/07 08:11:08;;;;;;;;;;;;;;;24.01;35.71;94230.13;4977789;28;7282;-62
2024/03/07 08:13:41;;;;;;;;;;;;;;;23.95;32.59;94232.84;5038307;28;9520;-63
2024/03/07 08:16:25;;;;;;;;;;;;;;;23.93;32.30;94234.59;5088046;28;9586;-62
2024/03/07 08:19:10;;;;;;;;;;;;;;;23.94;33.07;94227.88;5076012;28;8866;-62
2024/03/07 08:21:48;;;;;;;;;;;;;;;23.92;33.05;94231.09;5091472;28;9828;-62
2024/03/07 08:24:30;;;;;;;;;;;;;;;23.91;33.37;94226.88;5094547;28;9630;-61
2024/03/07 08:27:02;;;;;;;;;;;;;;;23.87;33.68;94229.16;5108861;28;9003;-70
2024/03/07 08:29:39;;;;;;;;;;;;;;;23.89;34.57;94228.63;5076871;28;8867;-70
2024/03/07 08:32:17;;;;;;;;;;;;;;;23.93;35.62;94234.59;5092176;28;9703;-70
2024/03/07 08:34:47;;;;;;;;;;;;;;;23.94;34.97;94230.63;5092252;28;9053;-70
2024/03/07 08:37:22;;;;;;;;;;;;;;;23.95;35.49;94221.13;5095890;28;8626;-70
2024/03/07 08:39:56;;;;;;;;;;;;;;;23.92;35.80;94216.66;5083090;28;9035;-70
2024/03/07 08:42:37;;;;;;;;;;;;;;;23.90;35.94;94222.63;5104542;28;9726;-69
2024/03/07 08:45:04;;;;;;;;;;;;;;;23.96;36.15;94236.38;5083373;28;8682;-70
2024/03/07 08:47:35;;;;;;;;;;;;;;;23.95;36.43;94224.63;5081230;28;8806;-70
2024/03/07 08:50:05;;;;;;;;;;;;;;;23.94;37.06;94231.38;5095402;28;7299;-70
2024/03/07 08:52:48;;;;;;;;;;;;;;;23.92;36.87;94211.16;5086543;28;7305;-70
2024/03/07 08:55:26;;;;;;;;;;;;;;;23.97;36.80;94221.38;5096263;28;8734;-70
2024/03/07 08:57:56;;;;;;;;;;;;;;;23.97;37.02;94218.63;5088771;28;8943;-70
2024/03/07 09:00:52;;;;;;;;;;;;;;;23.98;37.06;94220.88;5083324;28;6999;-70
2024/03/07 09:03:33;;;;;;;;;;;;;;;23.96;37.76;94215.13;5057005;28;9002;-70
2024/03/07 09:06:46;;;;;;;;;;;;;;;24.01;38.23;94212.88;5061567;28;9385;-70
2024/03/07 09:09:13;;;;;;;;;;;;;;;24.02;38.38;94212.38;5069747;28;8992;-70
2024/03/07 09:11:42;;;;;;;;;;;;;;;23.98;38.13;94203.63;5069493;28;9185;-70
2024/03/07 09:14:09;;;;;;;;;;;;;;;23.99;38.71;94199.63;5064480;28;9312;-70
2024/03/07 09:17:09;;;;;;;;;;;;;;;24.05;37.85;94208.66;5056681;28;7414;-70
2024/03/07 09:19:50;;;;;;;;;;;;;;;24.04;38.12;94211.84;5053052;28;9211;-70
2024/03/07 09:22:16;;;;;;;;;;;;;;;24.01;38.52;94208.13;5064293;28;8638;-70
2024/03/07 09:24:51;;;;;;;;;;;;;;;24.03;37.44;94216.63;5058257;28;8698;-70
2024/03/07 09:27:27;;;;;;;;;;;;;;;24.02;38.54;94209.63;5068304;28;9120;-70
2024/03/07 09:30:02;;;;;;;;;;;;;;;24.04;38.17;94201.63;5054880;28;9146;-70
2024/03/07 09:32:58;;;;;;;;;;;;;;;24.05;39.03;94200.41;5058751;28;8794;-70
2024/03/07 09:35:41;;;;;;;;;;;;;;;24.06;39.24;94199.13;5046146;28;7340;-70
2024/03/07 09:38:14;;;;;;;;;;;;;;;24.06;39.15;94199.13;5055198;28;7156;-71
2024/03/07 09:40:47;;;;;;;;;;;;;;;24.06;38.68;94193.66;5083222;28;8859;-72
2024/03/07 09:43:20;;;;;;;;;;;;;;;24.07;38.82;94195.16;5085110;28;8772;-71
2024/03/07 09:45:49;;;;;;;;;;;;;;;24.08;39.44;94193.88;5081485;28;8804;-71
2024/03/07 09:48:19;;;;;;;;;;;;;;;24.09;38.65;94198.13;5097236;28;9454;-71
2024/03/07 09:50:50;;;;;;;;;;;;;;;24.09;39.60;94198.13;5102024;28;9072;-71
2024/03/07 09:53:24;;;;;;;;;;;;;;;24.11;39.96;94206.63;5097322;28;9068;-71
2024/03/07 09:55:54;;;;;;;;;;;;;;;24.10;39.79;94196.88;5077409;28;7034;-71
2024/03/07 09:58:22;;;;;;;;;;;;;;;24.08;39.49;94193.88;5087227;28;8768;-71
2024/03/07 10:00:50;;;;;;;;;;;;;;;24.11;39.68;94194.88;5077972;28;9361;-71
2024/03/07 10:03:23;;;;;;;;;;;;;;;24.08;39.81;94196.63;5096304;28;8878;-71
2024/03/07 10:05:49;;;;;;;;;;;;;;;24.07;39.82;94189.66;5094123;28;9278;-72
2024/03/07 10:08:16;;;;;;;;;;;;;;;24.12;40.08;94196.38;5093901;28;9195;-71
2024/03/07 10:10:44;;;;;;;;;;;;;;;24.12;40.16;94193.63;5081042;28;9324;-71
2024/03/07 10:13:35;;;;;;;;;;;;;;;24.13;40.37;94200.59;5093617;28;9141;-71
2024/03/07 10:16:29;;;;;;;;;;;;;;;24.14;39.42;94197.34;5078971;28;8665;-71
2024/03/07 10:18:55;;;;;;;;;;;;;;;24.14;39.30;94191.13;5090109;28;9042;-70
2024/03/07 10:21:24;;;;;;;;;;;;;;;24.14;39.53;94191.84;5101285;28;9177;-71
2024/03/07 10:24:11;;;;;;;;;;;;;;;24.15;39.68;94198.09;5077550;28;9401;-71
2024/03/07 10:27:06;;;;;;;;;;;;;;;24.15;39.98;94193.34;5098460;28;9411;-70
2024/03/07 10:29:46;;;;;;;;;;;;;;;24.16;40.32;94194.88;4987101;28;7029;-70
2024/03/07 10:32:13;;;;;;;;;;;;;;;24.13;40.28;94187.63;5000382;28;7127;-70
2024/03/07 10:34:46;;;;;;;;;;;;;;;24.13;39.62;94193.13;5010262;28;7042;-70
2024/03/07 10:37:16;;;;;;;;;;;;;;;24.17;39.82;94195.59;4997659;28;9125;-71
2024/03/07 10:39:46;;;;;;;;;;;;;;;24.14;40.27;94180.88;4995953;28;8875;-71
2024/03/07 10:42:18;;;;;;;;;;;;;;;24.13;40.03;94167.63;4986556;28;9050;-70
2024/03/07 10:44:47;;;;;;;;;;;;;;;24.18;40.24;94186.88;4991248;28;9969;-70
2024/03/07 10:47:22;;;;;;;;;;;;;;;24.18;40.32;94184.13;4990672;28;9095;-70
2024/03/07 10:50:12;;;;;;;;;;;;;;;24.14;40.43;94180.88;4987350;28;6959;-70
2024/03/07 10:53:02;;;;;;;;;;;;;;;24.19;40.42;94190.34;4983318;28;9500;-70
2024/03/07 10:55:36;;;;;;;;;;;;;;;24.15;40.60;94178.88;4992333;28;8968;-70
2024/03/07 10:58:14;;;;;;;;;;;;;;;24.18;40.50;94186.13;4980173;28;9306;-71
2024/03/07 11:00:45;;;;;;;;;;;;;;;24.19;40.31;94184.84;4999359;28;9089;-70
2024/03/07 11:03:14;;;;;;;;;;;;;;;24.19;40.48;94179.34;4993460;28;8200;-70
2024/03/07 11:05:44;;;;;;;;;;;;;;;24.22;40.54;94187.34;5018351;28;8901;-70
2024/03/07 11:08:13;;;;;;;;;;;;;;;24.19;40.40;94185.59;5098044;28;9119;-70
2024/03/07 11:10:40;;;;;;;;;;;;;;;24.22;40.79;94190.09;5091463;28;9088;-70
2024/03/07 11:13:12;;;;;;;;;;;;;;;24.25;41.11;94191.09;5089834;28;9109;-70
2024/03/07 11:15:44;;;;;;;;;;;;;;;24.23;41.01;94185.34;5081587;28;9440;-70
2024/03/07 11:19:04;;;;;;;;;;;;;;;24.24;40.46;94182.09;5097921;28;9437;-70
2024/03/07 11:21:43;;;;;;;;;;;;;;;24.20;40.84;94170.63;5099615;28;9557;-70
2024/03/07 11:24:59;;;;;;;;;;;;;;;24.25;40.72;94183.56;5081259;28;9218;-70
2024/03/07 11:27:26;;;;;;;;;;;;;;;24.25;41.11;94180.09;5101923;28;8812;-70
2024/03/07 11:30:21;;;;;;;;;;;;;;;24.25;40.98;94172.56;5084587;28;9526;-69
2024/03/07 11:32:53;;;;;;;;;;;;;;;24.25;41.23;94167.06;5092970;28;9336;-70
2024/03/07 11:35:48;;;;;;;;;;;;;;;24.26;41.66;94159.59;5089724;28;9278;-70
2024/03/07 11:38:35;;;;;;;;;;;;;;;24.25;41.74;94156.09;5093581;28;7216;-70
2024/03/07 11:41:12;;;;;;;;;;;;;;;24.26;41.35;94156.84;5083268;28;9872;-70
2024/03/07 11:43:42;;;;;;;;;;;;;;;24.26;40.90;94157.59;5094252;28;9656;-70
2024/03/07 11:46:16;;;;;;;;;;;;;;;24.27;41.42;94159.06;5099055;28;8955;-70
2024/03/07 11:48:42;;;;;;;;;;;;;;;24.26;41.72;94152.09;5094488;28;8842;-70
2024/03/07 11:51:17;;;;;;;;;;;;;;;24.22;41.40;94146.13;5093206;28;8834;-70
2024/03/07 11:53:47;;;;;;;;;;;;;;;24.28;40.97;94155.06;5101761;28;9175;-70
2024/03/07 11:56:37;;;;;;;;;;;;;;;24.28;41.08;94155.06;5100442;28;7231;-70
2024/03/07 11:59:37;;;;;;;;;;;;;;;24.28;40.86;94155.06;5093018;28;8745;-69
2024/03/07 12:02:15;;;;;;;;;;;;;;;24.27;41.28;94148.06;5098434;28;8711;-69
2024/03/07 12:04:54;;;;;;;;;;;;;;;24.28;41.81;94149.59;5077772;28;8783;-69
2024/03/07 12:07:39;;;;;;;;;;;;;;;24.28;41.29;94146.84;5095769;28;9173;-70
2024/03/07 12:10:06;;;;;;;;;;;;;;;24.28;41.63;94141.34;5096117;28;8997;-70
2024/03/07 12:12:56;;;;;;;;;;;;;;;24.28;41.15;94144.09;5083584;28;9576;-70
2024/03/07 12:15:23;;;;;;;;;;;;;;;24.25;41.64;94133.38;5108317;28;9162;-70
2024/03/07 12:17:57;;;;;;;;;;;;;;;24.30;41.79;94138.06;5090730;28;8857;-70
2024/03/07 12:21:06;;;;;;;;;;;;;;;24.31;42.15;94132.09;5107641;28;9289;-70
2024/03/07 12:23:47;;;;;;;;;;;;;;;24.30;41.65;94129.81;5094025;28;9254;-70
2024/03/07 12:26:25;;;;;;;;;;;;;;;24.27;41.92;94114.38;5079733;28;9161;-70
2024/03/07 12:28:57;;;;;;;;;;;;;;;24.26;41.80;94121.88;5079705;28;8900;-70
2024/03/07 12:31:25;;;;;;;;;;;;;;;24.28;41.58;94121.34;5089527;28;9185;-70
2024/03/07 12:33:51;;;;;;;;;;;;;;;24.32;41.98;94128.06;5078006;28;8668;-71
2024/03/07 12:36:17;;;;;;;;;;;;;;;24.32;42.18;94121.81;5083537;28;8706;-70
2024/03/07 12:38:43;;;;;;;;;;;;;;;24.29;41.73;94122.84;5090860;28;8583;-71
2024/03/07 12:41:13;;;;;;;;;;;;;;;24.32;41.39;94128.06;5079752;28;9008;-71
2024/03/07 12:43:43;;;;;;;;;;;;;;;24.33;41.70;94124.06;5082085;28;8012;-71
2024/03/07 12:46:17;;;;;;;;;;;;;;;24.30;41.96;94114.09;5087065;28;9011;-68
2024/03/07 12:48:44;;;;;;;;;;;;;;;24.32;41.98;94122.56;5097589;28;10021;-65
2024/03/07 12:51:18;;;;;;;;;;;;;;;24.30;41.59;94107.84;5103108;28;9159;-64
2024/03/07 12:53:49;;;;;;;;;;;;;;;24.27;41.77;94109.59;5083559;28;8632;-65
2024/03/07 12:56:25;;;;;;;;;;;;;;;24.33;42.06;94113.09;5083964;28;8983;-65
2024/03/07 12:58:54;;;;;;;;;;;;;;;24.33;42.00;94117.81;5097359;28;9574;-64
2024/03/07 13:01:26;;;;;;;;;;;;;;;24.34;41.84;94111.06;5084043;28;9235;-64
2024/03/07 13:03:54;;;;;;;;;;;;;;;24.34;41.90;94114.56;5081706;28;7595;-65
2024/03/07 13:06:34;;;;;;;;;;;;;;;24.35;41.80;94110.56;5096899;28;9096;-64
2024/03/07 13:09:10;;;;;;;;;;;;;;;24.34;41.99;94109.06;5092514;28;9092;-64
2024/03/07 13:11:47;;;;;;;;;;;;;;;24.35;42.04;94110.56;5096550;28;8753;-64
2024/03/07 13:14:32;;;;;;;;;;;;;;;24.35;41.94;94110.56;5087275;28;7524;-65
2024/03/07 13:17:00;;;;;;;;;;;;;;;24.36;42.33;94117.53;5104123;28;9077;-64
2024/03/07 13:19:43;;;;;;;;;;;;;;;24.37;42.07;94115.56;5096802;28;9042;-64
2024/03/07 13:22:30;;;;;;;;;;;;;;;24.36;41.96;94111.31;5091337;28;9657;-65
2024/03/07 13:25:03;;;;;;;;;;;;;;;24.35;42.06;94116.06;5074684;28;9155;-64
2024/03/07 13:27:43;;;;;;;;;;;;;;;24.37;42.24;94113.56;5092977;28;9201;-65
2024/03/07 13:30:22;;;;;;;;;;;;;;;24.37;42.05;94113.56;5087624;28;9138;-65
2024/03/07 13:32:49;;;;;;;;;;;;;;;24.38;42.43;94111.56;5084386;28;8724;-64
2024/03/07 13:35:45;;;;;;;;;;;;;;;24.38;42.68;94112.28;5082736;28;7744;-64
2024/03/07 13:38:21;;;;;;;;;;;;;;;24.36;42.50;94103.81;4996714;28;7114;-64
2024/03/07 13:40:49;;;;;;;;;;;;;;;24.38;42.33;94108.81;4988141;28;7028;-64
2024/03/07 13:43:25;;;;;;;;;;;;;;;24.39;42.50;94104.78;5012915;28;8833;-64
2024/03/07 13:45:54;;;;;;;;;;;;;;;24.39;42.73;94111.03;4995088;28;7230;-64